Time;durP1;ratioP1;P1;durP2;ratioP2;P2;SDS_P1;SDS_P2;PMS_P1;PMS_P2;Temp;Humidity;BMP_temperature;BMP_pressure;BME280_temperature;BME280_humidity;BME280_pressure;Samples;Min_cycle;Max_cycle;Signal;HPM_P1;HPM_P2
2021/03/07 00:01:47;;;;;;;7.90;3.72;;;4.20;99.90;;;;;;5048064;28;20041;-47
2021/03/07 00:04:13;;;;;;;9.02;3.80;;;4.10;99.90;;;;;;5048064;28;20029;-45
2021/03/07 00:06:38;;;;;;;8.95;3.50;;;4.20;99.90;;;;;;5047660;28;20033;-45
2021/03/07 00:09:04;;;;;;;8.93;4.57;;;4.10;99.90;;;;;;5048355;28;20017;-48
2021/03/07 00:11:29;;;;;;;7.80;3.33;;;4.10;99.90;;;;;;5047182;28;20039;-45
2021/03/07 00:13:55;;;;;;;7.55;4.03;;;4.10;99.90;;;;;;5048717;28;20156;-48
2021/03/07 00:16:20;;;;;;;5.28;3.28;;;4.10;99.90;;;;;;5047151;28;20041;-46
2021/03/07 00:18:46;;;;;;;11.43;4.03;;;4.10;99.90;;;;;;5047976;28;20101;-46
2021/03/07 00:21:12;;;;;;;8.57;3.38;;;4.10;99.90;;;;;;5046171;28;20036;-46
2021/03/07 00:23:38;;;;;;;6.60;3.65;;;4.10;99.90;;;;;;5046623;28;20425;-45
2021/03/07 00:26:04;;;;;;;8.75;3.92;;;4.10;99.90;;;;;;5046857;28;20037;-48
2021/03/07 00:28:29;;;;;;;7.35;4.03;;;4.10;99.90;;;;;;5048050;28;20387;-45
2021/03/07 00:30:55;;;;;;;14.20;3.97;;;4.00;99.90;;;;;;5046806;28;20036;-45
2021/03/07 00:33:20;;;;;;;8.65;3.47;;;4.00;99.90;;;;;;5050249;28;20187;-45
2021/03/07 00:35:46;;;;;;;6.88;3.90;;;4.00;99.90;;;;;;5052320;28;20436;-46
2021/03/07 00:38:12;;;;;;;8.68;3.60;;;4.00;99.90;;;;;;5047495;28;20021;-45
2021/03/07 00:40:38;;;;;;;9.23;3.78;;;3.90;99.90;;;;;;5047693;28;20021;-45
2021/03/07 00:43:03;;;;;;;7.60;4.28;;;3.90;99.90;;;;;;5046162;28;20056;-45
2021/03/07 00:45:29;;;;;;;11.85;4.32;;;3.80;99.90;;;;;;5046987;28;20032;-45
2021/03/07 00:47:54;;;;;;;6.15;3.55;;;3.90;99.90;;;;;;5047615;28;20071;-46
2021/03/07 00:50:25;;;;;;;6.50;4.22;;;3.90;99.90;;;;;;5047530;28;20029;-45
2021/03/07 00:52:51;;;;;;;8.77;3.88;;;3.80;99.90;;;;;;5047558;28;20037;-46
2021/03/07 00:55:16;;;;;;;7.75;4.00;;;3.80;99.90;;;;;;5046010;28;20037;-44
2021/03/07 00:57:42;;;;;;;10.25;3.78;;;3.80;99.90;;;;;;5047238;28;20078;-43
2021/03/07 01:00:13;;;;;;;8.27;4.10;;;3.80;99.90;;;;;;5047471;28;20021;-44
2021/03/07 01:02:38;;;;;;;9.38;4.32;;;3.70;99.90;;;;;;5047143;28;20024;-44
2021/03/07 01:05:05;;;;;;;10.27;4.35;;;3.70;99.90;;;;;;5047003;28;20252;-44
2021/03/07 01:07:31;;;;;;;8.55;4.47;;;3.70;99.90;;;;;;5046007;28;20059;-44
2021/03/07 01:09:57;;;;;;;11.55;5.18;;;3.70;99.90;;;;;;5047746;28;20021;-45
2021/03/07 01:12:22;;;;;;;8.00;4.45;;;3.70;99.90;;;;;;5047510;28;20124;-45
2021/03/07 01:14:48;;;;;;;9.82;4.68;;;3.60;99.90;;;;;;5047506;28;20036;-43
2021/03/07 01:17:13;;;;;;;10.10;4.93;;;3.60;99.90;;;;;;5046763;28;20037;-44
2021/03/07 01:19:39;;;;;;;8.05;4.82;;;3.60;99.90;;;;;;5047437;28;20226;-46
2021/03/07 01:22:05;;;;;;;9.63;4.55;;;3.70;99.90;;;;;;5047237;28;20444;-43
2021/03/07 01:24:30;;;;;;;9.70;4.88;;;3.70;99.90;;;;;;5047331;28;20390;-45
2021/03/07 01:26:56;;;;;;;9.57;4.63;;;3.60;99.90;;;;;;5046787;28;20029;-45
2021/03/07 01:29:22;;;;;;;11.13;5.28;;;3.60;99.90;;;;;;5045989;28;20128;-47
2021/03/07 01:31:48;;;;;;;11.25;5.53;;;3.60;99.90;;;;;;5046541;28;20438;-45
2021/03/07 01:34:13;;;;;;;19.90;5.78;;;3.60;99.90;;;;;;5048851;28;20033;-44
2021/03/07 01:36:39;;;;;;;10.27;5.80;;;3.50;99.90;;;;;;5051268;28;20082;-43
2021/03/07 01:39:05;;;;;;;8.68;4.38;;;3.50;99.90;;;;;;5046805;28;20287;-43
2021/03/07 01:41:31;;;;;;;10.80;5.43;;;3.50;99.90;;;;;;5046412;28;20021;-43
2021/03/07 01:43:56;;;;;;;10.00;5.75;;;3.50;99.90;;;;;;5047396;28;20086;-43
2021/03/07 01:46:23;;;;;;;9.10;5.13;;;3.50;99.90;;;;;;5046280;28;20414;-43
2021/03/07 01:48:48;;;;;;;15.48;5.80;;;3.50;99.90;;;;;;5047581;28;20029;-44
2021/03/07 01:51:15;;;;;;;9.52;5.80;;;3.50;99.90;;;;;;5047353;28;20036;-44
2021/03/07 01:53:41;;;;;;;10.57;4.68;;;3.50;99.90;;;;;;5047899;28;20052;-43
2021/03/07 01:56:09;;;;;;;11.75;6.22;;;3.50;99.90;;;;;;5046220;28;20079;-43
2021/03/07 01:58:37;;;;;;;12.77;6.30;;;3.50;99.90;;;;;;5047113;28;20456;-44
2021/03/07 02:01:03;;;;;;;10.77;6.35;;;3.50;99.90;;;;;;5046599;28;20112;-45
2021/03/07 02:03:28;;;;;;;9.13;5.88;;;3.50;99.90;;;;;;5047018;28;20365;-44
2021/03/07 02:05:54;;;;;;;13.35;6.60;;;3.50;99.90;;;;;;5044866;28;20537;-44
2021/03/07 02:08:21;;;;;;;12.13;6.22;;;3.50;99.90;;;;;;5046887;28;20025;-44
2021/03/07 02:11:00;;;;;;;11.80;6.75;;;3.50;99.90;;;;;;5050040;28;20029;-45
2021/03/07 02:13:32;;;;;;;8.98;5.78;;;3.50;99.90;;;;;;5049870;28;20021;-45
2021/03/07 02:16:02;;;;;;;15.55;6.38;;;3.50;99.90;;;;;;5048577;28;20440;-44
2021/03/07 02:18:29;;;;;;;12.40;6.70;;;3.50;99.90;;;;;;5050551;28;20028;-45
2021/03/07 02:20:58;;;;;;;11.13;6.10;;;3.50;99.90;;;;;;5050282;28;20037;-44
2021/03/07 02:23:29;;;;;;;12.15;5.80;;;3.50;99.90;;;;;;5050163;28;20079;-44
2021/03/07 02:25:54;;;;;;;;;;;3.50;99.90;;;;;;5049549;28;20071;-46
2021/03/07 02:28:22;;;;;;;9.88;5.95;;;3.50;99.90;;;;;;5050388;28;20340;-44
2021/03/07 02:30:48;;;;;;;9.90;5.55;;;3.40;99.90;;;;;;5049877;28;20394;-44
2021/03/07 02:33:22;;;;;;;12.25;6.82;;;3.40;99.90;;;;;;5049555;28;20280;-44
2021/03/07 02:36:14;;;;;;;9.50;5.75;;;3.40;99.90;;;;;;5054077;28;20032;-44
2021/03/07 02:38:42;;;;;;;11.63;6.63;;;3.40;99.90;;;;;;5066660;28;20016;-45
2021/03/07 02:41:10;;;;;;;14.38;7.05;;;3.40;99.90;;;;;;5069752;28;20025;-44
2021/03/07 02:43:41;;;;;;;12.80;6.00;;;3.30;99.90;;;;;;5069873;28;20020;-45
2021/03/07 02:46:11;;;;;;;10.93;6.20;;;3.30;99.90;;;;;;5068898;28;20024;-45
2021/03/07 02:48:38;;;;;;;9.60;4.32;;;3.20;99.90;;;;;;5069886;28;20398;-44
2021/03/07 02:51:06;;;;;;;10.90;5.57;;;3.20;99.90;;;;;;5069451;28;20487;-43
2021/03/07 02:53:33;;;;;;;9.95;5.80;;;3.20;99.90;;;;;;5069824;28;20517;-43
2021/03/07 02:56:21;;;;;;;10.27;6.00;;;3.10;99.90;;;;;;5069141;28;20033;-43
2021/03/07 02:58:48;;;;;;;10.90;5.97;;;3.10;99.90;;;;;;5069369;28;20127;-44
2021/03/07 03:01:16;;;;;;;14.00;5.20;;;3.10;99.90;;;;;;5067357;28;20031;-45
2021/03/07 03:03:44;;;;;;;10.50;5.18;;;3.10;99.90;;;;;;5069702;28;20107;-44
2021/03/07 03:06:11;;;;;;;8.48;4.65;;;3.00;99.90;;;;;;5068345;28;20141;-44
2021/03/07 03:08:39;;;;;;;11.25;4.97;;;3.00;99.90;;;;;;5069277;28;20052;-44
2021/03/07 03:11:06;;;;;;;8.27;4.70;;;3.00;99.90;;;;;;5069201;28;20078;-44
2021/03/07 03:13:35;;;;;;;7.70;4.20;;;2.90;99.90;;;;;;5069225;28;20190;-44
2021/03/07 03:16:02;;;;;;;10.48;5.10;;;2.90;99.90;;;;;;5068383;28;20024;-44
2021/03/07 03:18:31;;;;;;;13.05;5.07;;;2.90;99.90;;;;;;5068798;28;20025;-44
2021/03/07 03:21:02;;;;;;;9.82;3.83;;;2.80;99.90;;;;;;5068703;28;20178;-43
2021/03/07 03:23:27;;;;;;;;;;;2.90;99.90;;;;;;5069626;28;20025;-44
2021/03/07 03:25:53;;;;;;;8.13;4.07;;;2.90;99.90;;;;;;5068536;28;19919;-44
2021/03/07 03:28:20;;;;;;;7.38;4.30;;;2.90;99.90;;;;;;5068816;28;20023;-44
2021/03/07 03:30:46;;;;;;;9.23;4.05;;;2.80;99.90;;;;;;5067346;28;20268;-44
2021/03/07 03:33:11;;;;;;;11.57;4.50;;;2.80;99.90;;;;;;5051589;28;20028;-44
2021/03/07 03:35:37;;;;;;;7.95;3.72;;;2.80;99.90;;;;;;5048259;28;20021;-43
2021/03/07 03:38:03;;;;;;;11.10;4.47;;;2.80;99.90;;;;;;5057734;28;20032;-44
2021/03/07 03:40:29;;;;;;;4.85;3.53;;;2.70;99.90;;;;;;5048361;28;20394;-45
2021/03/07 03:43:07;;;;;;;5.60;3.63;;;2.80;99.90;;;;;;5048854;28;20052;-44
2021/03/07 03:45:36;;;;;;;9.35;3.58;;;2.80;99.90;;;;;;5048373;28;20032;-43
2021/03/07 03:48:06;;;;;;;10.77;4.63;;;2.80;99.90;;;;;;5048002;28;20114;-45
2021/03/07 03:50:32;;;;;;;7.22;3.55;;;2.80;99.90;;;;;;5048665;28;20367;-44
2021/03/07 03:53:03;;;;;;;7.13;3.78;;;2.80;99.90;;;;;;5048774;28;20444;-44
2021/03/07 03:55:31;;;;;;;7.07;3.90;;;2.80;99.90;;;;;;5047056;28;20025;-45
2021/03/07 03:58:03;;;;;;;7.20;3.90;;;2.80;99.90;;;;;;5048034;28;20029;-45
2021/03/07 04:00:30;;;;;;;9.82;4.43;;;2.80;99.90;;;;;;5048064;28;20028;-44
2021/03/07 04:02:58;;;;;;;11.40;4.38;;;2.80;99.90;;;;;;5048517;28;20061;-45
2021/03/07 04:05:26;;;;;;;8.90;3.50;;;2.80;99.90;;;;;;5047578;28;20033;-44
2021/03/07 04:07:52;;;;;;;5.65;2.75;;;2.80;99.90;;;;;;5048027;28;20019;-45
2021/03/07 04:10:19;;;;;;;8.65;3.45;;;2.70;99.90;;;;;;5047793;28;20055;-45
2021/03/07 04:12:46;;;;;;;9.70;3.55;;;2.70;99.90;;;;;;5048284;28;20028;-44
2021/03/07 04:15:14;;;;;;;7.57;3.58;;;2.70;99.90;;;;;;5047836;28;20025;-45
2021/03/07 04:17:42;;;;;;;7.63;3.30;;;2.60;99.90;;;;;;5048327;28;20116;-45
2021/03/07 04:20:08;;;;;;;6.70;3.30;;;2.70;99.90;;;;;;5048294;28;20040;-45
2021/03/07 04:22:34;;;;;;;8.88;2.92;;;2.70;99.90;;;;;;5047898;28;20043;-46
2021/03/07 04:25:00;;;;;;;5.53;3.40;;;2.70;99.90;;;;;;5047178;28;20474;-46
2021/03/07 04:27:27;;;;;;;6.38;3.15;;;2.70;99.90;;;;;;5046751;28;20025;-45
2021/03/07 04:29:52;;;;;;;11.63;4.30;;;2.70;99.90;;;;;;5046554;28;20071;-46
2021/03/07 04:32:19;;;;;;;5.43;3.08;;;2.70;99.90;;;;;;5045243;28;20060;-47
2021/03/07 04:34:45;;;;;;;6.18;3.30;;;2.70;99.90;;;;;;5029508;28;20467;-44
2021/03/07 04:37:12;;;;;;;7.50;3.53;;;2.70;99.90;;;;;;5046619;28;20037;-44
2021/03/07 04:39:37;;;;;;;9.25;3.65;;;2.70;99.90;;;;;;5056765;28;20151;-44
2021/03/07 04:42:04;;;;;;;9.23;3.22;;;2.70;99.90;;;;;;5067356;28;20115;-46
2021/03/07 04:44:30;;;;;;;7.57;4.03;;;2.70;99.90;;;;;;5067719;28;20024;-44
2021/03/07 04:46:56;;;;;;;9.20;3.28;;;2.70;99.90;;;;;;5066663;28;20521;-44
2021/03/07 04:49:21;;;;;;;8.65;3.80;;;2.70;99.90;;;;;;5067146;28;20032;-43
2021/03/07 04:51:47;;;;;;;6.97;3.10;;;2.70;99.90;;;;;;5067902;28;20017;-44
2021/03/07 04:54:12;;;;;;;8.40;3.92;;;2.70;99.90;;;;;;5067487;28;20047;-48
2021/03/07 04:56:38;;;;;;;4.47;2.70;;;2.70;99.90;;;;;;5047192;28;20029;-45
2021/03/07 04:59:04;;;;;;;10.05;3.80;;;2.70;99.90;;;;;;5047287;28;20044;-44
2021/03/07 05:01:29;;;;;;;6.60;3.28;;;2.70;99.90;;;;;;5047516;28;20079;-46
2021/03/07 05:03:55;;;;;;;6.95;3.60;;;2.70;99.90;;;;;;5047684;28;20467;-47
2021/03/07 05:06:24;;;;;;;9.52;3.92;;;2.70;99.90;;;;;;5055437;28;20027;-47
2021/03/07 05:08:50;;;;;;;8.70;4.10;;;2.70;99.90;;;;;;5056537;28;20714;-45
2021/03/07 05:11:16;;;;;;;8.05;3.95;;;2.70;99.90;;;;;;5056279;28;20053;-45
2021/03/07 05:13:43;;;;;;;12.55;3.75;;;2.70;99.90;;;;;;5057822;28;20395;-45
2021/03/07 05:16:09;;;;;;;10.43;3.97;;;2.70;99.90;;;;;;5055833;28;20094;-45
2021/03/07 05:18:35;;;;;;;7.45;3.17;;;2.70;99.90;;;;;;5056979;28;20037;-44
2021/03/07 05:21:01;;;;;;;5.22;3.08;;;2.60;99.90;;;;;;5056138;28;20252;-45
2021/03/07 05:23:27;;;;;;;7.85;3.50;;;2.60;99.90;;;;;;5057770;28;20377;-44
2021/03/07 05:25:53;;;;;;;8.15;3.42;;;2.60;99.90;;;;;;5054889;28;20052;-44
2021/03/07 05:28:18;;;;;;;7.97;3.20;;;2.60;99.90;;;;;;5052604;28;20019;-44
2021/03/07 05:30:44;;;;;;;7.43;2.97;;;2.60;99.90;;;;;;5054688;28;20044;-44
2021/03/07 05:33:11;;;;;;;4.75;3.55;;;2.60;99.90;;;;;;5057627;28;20244;-45
2021/03/07 05:35:36;;;;;;;7.28;3.63;;;2.60;99.90;;;;;;5055211;28;20017;-44
2021/03/07 05:38:02;;;;;;;7.30;3.92;;;2.60;99.90;;;;;;5057566;28;20448;-44
2021/03/07 05:40:31;;;;;;;7.88;3.70;;;2.70;99.90;;;;;;5051450;28;20021;-45
2021/03/07 05:42:58;;;;;;;6.50;3.63;;;2.60;99.90;;;;;;5057340;28;20111;-45
2021/03/07 05:45:24;;;;;;;6.65;4.05;;;2.70;99.90;;;;;;5058192;28;20059;-45
2021/03/07 05:47:54;;;;;;;5.38;3.00;;;2.70;99.90;;;;;;5050669;28;20021;-45
2021/03/07 05:50:20;;;;;;;6.22;3.30;;;2.70;99.90;;;;;;5060171;28;20355;-46
2021/03/07 05:52:47;;;;;;;10.25;4.07;;;2.70;99.90;;;;;;5061751;28;20089;-45
2021/03/07 05:55:12;;;;;;;6.05;3.25;;;2.60;99.90;;;;;;5058577;28;20025;-45
2021/03/07 05:57:39;;;;;;;10.45;3.05;;;2.60;99.90;;;;;;5058345;28;20413;-46
2021/03/07 06:00:05;;;;;;;16.65;3.80;;;2.60;99.90;;;;;;5059480;28;20036;-45
2021/03/07 06:02:32;;;;;;;14.10;4.47;;;2.60;99.90;;;;;;5061342;28;20055;-46
2021/03/07 06:04:57;;;;;;;9.77;3.85;;;2.60;99.90;;;;;;5062223;28;20017;-45
2021/03/07 06:07:23;;;;;;;8.30;3.22;;;2.60;99.90;;;;;;5061285;28;20631;-46
2021/03/07 06:10:09;;;;;;;7.05;4.00;;;2.60;99.90;;;;;;5059659;28;20561;-44
2021/03/07 06:12:35;;;;;;;5.00;3.25;;;2.60;99.90;;;;;;5060296;28;20040;-45
2021/03/07 06:15:02;;;;;;;10.95;4.32;;;2.50;99.90;;;;;;5059901;28;20032;-46
2021/03/07 06:17:41;;;;;;;8.07;4.03;;;2.60;99.90;;;;;;5058441;28;20108;-46
2021/03/07 06:20:09;;;;;;;6.53;3.23;;;2.60;99.90;;;;;;5058770;28;20486;-45
2021/03/07 06:22:36;;;;;;;6.68;3.30;;;2.60;99.90;;;;;;5058128;28;20282;-45
2021/03/07 06:25:05;;;;;;;9.30;3.47;;;2.60;99.90;;;;;;5058139;28;20055;-45
2021/03/07 06:27:31;;;;;;;7.72;3.35;;;2.60;99.90;;;;;;5057432;28;20037;-45
2021/03/07 06:30:09;;;;;;;10.27;4.95;;;2.60;99.90;;;;;;5058039;28;21118;-45
2021/03/07 06:32:39;;;;;;;11.88;3.80;;;2.60;99.90;;;;;;5056619;28;20025;-45
2021/03/07 06:35:07;;;;;;;8.65;3.80;;;2.60;99.90;;;;;;5057765;28;20067;-45
2021/03/07 06:37:33;;;;;;;5.38;3.10;;;2.70;99.90;;;;;;5058338;28;20052;-48
2021/03/07 06:39:59;;;;;;;5.45;3.20;;;2.60;99.90;;;;;;5060466;28;20505;-45
2021/03/07 06:42:25;;;;;;;6.63;2.90;;;2.70;99.90;;;;;;5060654;28;20032;-46
2021/03/07 06:45:03;;;;;;;7.50;2.67;;;2.70;99.90;;;;;;5062575;28;20086;-46
2021/03/07 06:47:29;;;;;;;4.57;2.83;;;2.70;99.90;;;;;;5054903;28;20083;-46
2021/03/07 06:50:14;;;;;;;6.78;3.33;;;2.70;99.90;;;;;;5057995;28;20048;-45
2021/03/07 06:52:53;;;;;;;6.47;2.75;;;2.80;99.90;;;;;;5058970;28;20033;-45
2021/03/07 06:55:21;;;;;;;9.02;2.85;;;2.80;99.90;;;;;;5058350;28;20024;-45
2021/03/07 06:57:47;;;;;;;4.90;2.65;;;2.90;99.90;;;;;;5054195;28;20514;-45
2021/03/07 07:00:13;;;;;;;7.30;3.08;;;2.90;99.90;;;;;;5058674;28;20241;-45
2021/03/07 07:02:38;;;;;;;9.88;3.45;;;2.90;99.90;;;;;;5059464;28;20028;-46
2021/03/07 07:05:05;;;;;;;12.98;3.33;;;2.90;99.90;;;;;;5055173;28;20089;-45
2021/03/07 07:07:30;;;;;;;5.35;2.83;;;3.00;99.90;;;;;;5058338;28;20044;-45
2021/03/07 07:10:04;;;;;;;8.38;2.97;;;3.10;99.90;;;;;;5053023;28;20098;-46
2021/03/07 07:12:30;;;;;;;4.65;2.95;;;3.10;99.90;;;;;;5065322;28;20033;-45
2021/03/07 07:15:07;;;;;;;5.00;3.42;;;3.10;99.90;;;;;;5066274;28;20413;-44
2021/03/07 07:17:32;;;;;;;4.10;2.80;;;3.10;99.90;;;;;;5069559;28;20093;-44
2021/03/07 07:19:58;;;;;;;7.00;3.15;;;3.10;99.90;;;;;;5069140;28;20032;-44
2021/03/07 07:22:24;;;;;;;7.20;3.03;;;3.10;99.90;;;;;;5069063;28;20031;-44
2021/03/07 07:24:50;;;;;;;3.65;2.65;;;3.20;99.90;;;;;;5068813;28;20432;-45
2021/03/07 07:27:15;;;;;;;6.03;3.47;;;3.20;99.90;;;;;;5059938;28;20021;-44
2021/03/07 07:29:40;;;;;;;6.25;3.47;;;3.30;99.90;;;;;;5049275;28;20032;-45
2021/03/07 07:32:30;;;;;;;5.13;3.35;;;3.30;99.90;;;;;;5049103;28;20074;-44
2021/03/07 07:34:59;;;;;;;8.13;3.22;;;3.30;99.90;;;;;;5048614;28;20020;-45
2021/03/07 07:37:45;;;;;;;4.55;3.05;;;3.40;99.90;;;;;;5048473;28;20047;-45
2021/03/07 07:40:11;;;;;;;4.15;3.17;;;3.40;99.90;;;;;;5048845;28;20025;-45
2021/03/07 07:42:38;;;;;;;6.00;3.95;;;3.50;99.90;;;;;;5056528;28;20082;-45
2021/03/07 07:45:12;;;;;;;7.50;3.80;;;3.50;99.90;;;;;;5065339;28;20461;-45
2021/03/07 07:47:43;;;;;;;8.30;3.92;;;3.60;99.90;;;;;;5068491;28;20024;-45
2021/03/07 07:50:29;;;;;;;4.13;3.13;;;3.60;99.90;;;;;;5068717;28;20080;-45
2021/03/07 07:52:56;;;;;;;6.07;3.22;;;3.70;99.90;;;;;;5068836;28;20029;-46
2021/03/07 07:55:51;;;;;;;4.57;3.40;;;3.80;99.90;;;;;;5056429;28;20025;-45
2021/03/07 07:58:38;;;;;;;8.25;3.58;;;3.80;99.90;;;;;;5063797;28;20032;-45
2021/03/07 08:01:12;;;;;;;5.60;2.88;;;3.90;99.90;;;;;;5068234;28;20025;-45
2021/03/07 08:03:46;;;;;;;5.35;3.33;;;4.00;99.90;;;;;;5068453;28;20074;-45
2021/03/07 08:06:14;;;;;;;6.43;3.20;;;4.00;99.90;;;;;;5067704;28;20027;-45
2021/03/07 08:08:42;;;;;;;5.03;3.22;;;4.00;99.90;;;;;;5067173;28;20024;-45
2021/03/07 08:11:30;;;;;;;4.20;3.38;;;3.90;99.90;;;;;;5068392;28;20076;-46
2021/03/07 08:13:57;;;;;;;6.72;3.72;;;3.90;99.90;;;;;;5065607;28;20065;-45
2021/03/07 08:16:40;;;;;;;9.07;3.20;;;4.00;99.90;;;;;;5047443;28;20162;-45
2021/03/07 08:19:11;;;;;;;4.28;3.28;;;4.10;99.90;;;;;;5048222;28;20017;-45
2021/03/07 08:21:59;;;;;;;5.50;3.65;;;4.10;99.90;;;;;;5048154;28;20052;-45
2021/03/07 08:24:44;;;;;;;5.88;3.55;;;4.20;99.90;;;;;;5046077;28;20028;-46
2021/03/07 08:27:10;;;;;;;5.60;3.08;;;4.20;99.90;;;;;;5047053;28;20055;-47
2021/03/07 08:29:47;;;;;;;5.70;3.05;;;4.20;99.90;;;;;;5048147;28;20060;-45
2021/03/07 08:32:32;;;;;;;5.68;3.22;;;4.20;99.90;;;;;;5048213;28;20060;-45
2021/03/07 08:35:22;;;;;;;4.35;3.20;;;4.20;99.90;;;;;;5047249;28;20025;-45
2021/03/07 08:38:16;;;;;;;5.00;2.88;;;4.30;99.90;;;;;;5047923;28;20041;-43
2021/03/07 08:40:43;;;;;;;8.07;3.05;;;4.30;99.90;;;;;;5046847;28;20025;-44
2021/03/07 08:43:21;;;;;;;7.13;3.17;;;4.20;99.90;;;;;;5052008;28;20465;-44
2021/03/07 08:46:00;;;;;;;9.80;4.38;;;4.20;99.90;;;;;;5063059;28;20556;-45
2021/03/07 08:48:26;;;;;;;8.25;3.75;;;4.20;99.90;;;;;;5067507;28;20430;-45
2021/03/07 08:50:52;;;;;;;7.78;3.55;;;4.20;99.90;;;;;;5068464;28;20051;-45
2021/03/07 08:53:23;;;;;;;6.85;3.22;;;4.20;99.90;;;;;;5062553;28;20049;-45
2021/03/07 08:55:49;;;;;;;7.78;3.80;;;4.20;99.90;;;;;;5045959;28;20032;-45
2021/03/07 08:58:15;;;;;;;11.30;3.45;;;4.30;99.90;;;;;;5047802;28;20443;-44
2021/03/07 09:00:45;;;;;;;6.82;3.72;;;4.40;99.90;;;;;;5050901;28;20032;-46
2021/03/07 09:03:18;;;;;;;6.60;3.75;;;4.50;99.90;;;;;;5053974;28;20040;-44
2021/03/07 09:05:45;;;;;;;7.25;3.63;;;4.50;99.90;;;;;;5054797;28;20033;-44
2021/03/07 09:08:11;;;;;;;10.18;3.20;;;4.50;99.90;;;;;;5057128;28;20025;-45
2021/03/07 09:10:40;;;;;;;7.55;3.70;;;4.60;99.90;;;;;;5056576;28;20024;-46
2021/03/07 09:13:14;;;;;;;5.32;3.80;;;4.60;99.90;;;;;;5047140;28;20064;-45
2021/03/07 09:15:52;;;;;;;9.82;3.60;;;4.70;99.90;;;;;;5047162;28;20025;-45
2021/03/07 09:18:26;;;;;;;5.53;3.15;;;4.80;99.90;;;;;;5047232;28;20502;-45
2021/03/07 09:20:55;;;;;;;8.82;4.18;;;4.70;99.90;;;;;;5051247;28;20065;-46
2021/03/07 09:23:37;;;;;;;8.85;3.80;;;4.70;99.90;;;;;;5059329;28;20067;-44
2021/03/07 09:26:06;;;;;;;3.70;3.33;;;4.70;99.90;;;;;;5058300;28;20689;-45
2021/03/07 09:28:32;;;;;;;5.28;3.30;;;4.80;99.90;;;;;;5067862;28;20078;-44
2021/03/07 09:31:00;;;;;;;9.23;4.53;;;4.80;99.90;;;;;;5070971;28;20029;-46
2021/03/07 09:33:26;;;;;;;6.88;3.70;;;4.80;99.90;;;;;;5067317;28;20039;-45
2021/03/07 09:36:12;;;;;;;6.85;4.63;;;4.80;99.90;;;;;;5050625;28;20028;-45
2021/03/07 09:38:46;;;;;;;8.05;3.60;;;4.70;99.90;;;;;;5054909;28;20036;-45
2021/03/07 09:41:13;;;;;;;8.65;4.18;;;4.80;99.90;;;;;;5063887;28;20416;-45
2021/03/07 09:43:40;;;;;;;7.70;3.70;;;4.80;99.90;;;;;;5070770;28;20017;-44
2021/03/07 09:46:06;;;;;;;5.28;3.40;;;4.80;99.90;;;;;;5059951;28;20025;-46
2021/03/07 09:48:34;;;;;;;5.45;3.50;;;4.80;99.90;;;;;;5050388;28;20021;-45
2021/03/07 09:51:03;;;;;;;4.93;3.53;;;4.70;99.90;;;;;;5050945;28;20021;-45
2021/03/07 09:53:31;;;;;;;7.53;4.05;;;4.80;99.90;;;;;;5048639;28;20087;-45
2021/03/07 09:55:56;;;;;;;8.35;3.88;;;4.80;99.90;;;;;;5061383;28;20085;-46
2021/03/07 09:58:22;;;;;;;5.72;4.00;;;4.80;99.90;;;;;;5066269;28;20104;-46
2021/03/07 10:00:50;;;;;;;10.30;3.67;;;4.80;99.90;;;;;;5050726;28;20025;-45
2021/03/07 10:03:23;;;;;;;8.10;4.07;;;4.80;99.90;;;;;;5050387;28;20464;-45
2021/03/07 10:06:08;;;;;;;5.20;3.83;;;4.90;99.90;;;;;;5050073;28;20104;-45
2021/03/07 10:08:34;;;;;;;5.03;3.65;;;4.80;99.90;;;;;;5050254;28;20045;-46
2021/03/07 10:11:20;;;;;;;9.30;3.78;;;4.90;99.90;;;;;;5050533;28;20057;-44
2021/03/07 10:14:00;;;;;;;5.25;3.85;;;4.90;99.90;;;;;;5049787;28;20290;-47
2021/03/07 10:16:29;;;;;;;5.55;3.83;;;5.00;99.90;;;;;;5049565;28;20474;-46
2021/03/07 10:19:12;;;;;;;7.00;4.40;;;4.90;99.90;;;;;;5050455;28;20033;-45
2021/03/07 10:21:39;;;;;;;5.43;3.97;;;5.00;99.90;;;;;;5049164;28;20504;-45
2021/03/07 10:24:17;;;;;;;9.38;4.20;;;5.00;99.90;;;;;;5050464;28;20166;-45
2021/03/07 10:26:45;;;;;;;8.27;4.35;;;5.00;99.90;;;;;;5049752;28;20355;-46
2021/03/07 10:29:20;;;;;;;7.07;4.18;;;5.00;99.50;;;;;;5048684;28;20470;-45
2021/03/07 10:32:00;;;;;;;10.05;4.18;;;5.00;99.60;;;;;;5050427;28;20033;-46
2021/03/07 10:34:33;;;;;;;7.72;4.45;;;4.90;99.90;;;;;;5050048;28;20091;-45
2021/03/07 10:36:59;;;;;;;8.43;4.10;;;4.90;99.90;;;;;;5049328;28;20025;-45
2021/03/07 10:39:24;;;;;;;8.68;4.38;;;4.90;99.90;;;;;;5048438;28;20102;-45
2021/03/07 10:42:11;;;;;;;8.90;4.85;;;4.90;99.70;;;;;;5049649;28;20108;-45
2021/03/07 10:44:40;;;;;;;8.85;4.80;;;4.90;99.30;;;;;;5049276;28;20075;-44
2021/03/07 10:47:17;;;;;;;8.43;4.50;;;4.90;99.90;;;;;;5059546;28;20453;-48
2021/03/07 10:49:45;;;;;;;5.05;3.72;;;4.90;99.40;;;;;;5069552;28;20108;-44
2021/03/07 10:52:11;;;;;;;7.68;4.45;;;4.90;99.10;;;;;;5069572;28;20043;-44
2021/03/07 10:54:39;;;;;;;9.48;4.60;;;4.90;99.30;;;;;;5069911;28;20371;-44
2021/03/07 10:57:11;;;;;;;11.27;4.25;;;5.00;99.40;;;;;;5067771;28;20119;-46
2021/03/07 10:59:38;;;;;;;7.10;4.45;;;5.00;99.40;;;;;;5069636;28;20025;-44
2021/03/07 11:02:06;;;;;;;5.60;3.60;;;5.10;98.50;;;;;;5069238;28;20032;-46
2021/03/07 11:04:32;;;;;;;11.50;4.82;;;5.00;99.10;;;;;;5069546;28;20387;-45
2021/03/07 11:06:57;;;;;;;9.23;4.40;;;5.00;98.90;;;;;;5068492;28;20025;-46
2021/03/07 11:09:23;;;;;;;11.05;4.70;;;5.00;98.70;;;;;;5069216;28;20024;-48
2021/03/07 11:11:48;;;;;;;17.17;5.43;;;5.00;99.60;;;;;;5061307;28;20040;-46
2021/03/07 11:14:14;;;;;;;8.52;4.00;;;5.00;99.00;;;;;;5057943;28;20031;-47
2021/03/07 11:16:39;;;;;;;7.13;4.30;;;5.00;98.90;;;;;;5058239;28;20393;-46
2021/03/07 11:19:06;;;;;;;9.05;5.03;;;5.00;99.30;;;;;;5058613;28;20091;-45
2021/03/07 11:21:32;;;;;;;6.85;4.50;;;5.00;99.90;;;;;;5057377;28;20032;-44
2021/03/07 11:23:58;;;;;;;8.40;5.05;;;5.00;99.90;;;;;;5059543;28;20116;-45
2021/03/07 11:26:24;;;;;;;10.77;4.68;;;5.00;99.00;;;;;;5056531;28;20486;-45
2021/03/07 11:28:51;;;;;;;8.60;4.60;;;5.00;99.90;;;;;;5056119;28;20029;-45
2021/03/07 11:31:17;;;;;;;9.65;4.78;;;5.00;99.70;;;;;;5059048;28;20569;-46
2021/03/07 11:33:43;;;;;;;11.02;4.75;;;5.00;99.40;;;;;;5069069;28;20024;-44
2021/03/07 11:36:08;;;;;;;9.02;5.53;;;5.00;99.20;;;;;;5067891;28;20029;-45
2021/03/07 11:38:34;;;;;;;13.30;5.75;;;4.90;99.60;;;;;;5068887;28;20024;-45
2021/03/07 11:41:00;;;;;;;9.57;6.18;;;5.00;98.50;;;;;;5068573;28;20722;-46
2021/03/07 11:43:25;;;;;;;15.27;6.28;;;5.00;99.60;;;;;;5061947;28;20094;-44
2021/03/07 11:45:51;;;;;;;14.00;6.63;;;5.00;99.10;;;;;;5053758;28;20395;-44
2021/03/07 11:48:16;;;;;;;10.05;5.43;;;4.90;99.70;;;;;;5055968;28;20382;-45
2021/03/07 11:50:43;;;;;;;11.95;6.80;;;4.90;99.90;;;;;;5048575;28;20024;-45
2021/03/07 11:53:09;;;;;;;9.80;5.38;;;4.90;99.90;;;;;;5048651;28;20033;-45
2021/03/07 11:55:35;;;;;;;11.30;6.35;;;5.00;99.30;;;;;;5056541;28;20111;-44
2021/03/07 11:58:00;;;;;;;8.73;5.20;;;4.90;99.60;;;;;;5068218;28;20163;-44
2021/03/07 12:00:26;;;;;;;10.13;6.00;;;4.90;99.90;;;;;;5068251;28;20350;-46
2021/03/07 12:02:51;;;;;;;11.15;6.18;;;4.90;99.80;;;;;;5068613;28;20025;-48
2021/03/07 12:05:17;;;;;;;13.85;6.13;;;4.90;99.90;;;;;;5067588;28;20036;-46
2021/03/07 12:07:43;;;;;;;9.52;6.00;;;4.90;99.90;;;;;;5068180;28;20458;-46
2021/03/07 12:10:09;;;;;;;13.98;7.00;;;4.90;99.90;;;;;;5068043;28;20025;-45
2021/03/07 12:12:34;;;;;;;12.77;6.95;;;4.80;99.90;;;;;;5066982;28;20111;-46
2021/03/07 12:15:01;;;;;;;19.45;7.88;;;4.70;99.80;;;;;;5050207;28;20224;-45
2021/03/07 12:17:26;;;;;;;11.70;7.00;;;4.70;99.90;;;;;;5059736;28;20124;-45
2021/03/07 12:19:52;;;;;;;14.32;7.43;;;4.70;99.90;;;;;;5057631;28;20024;-45
2021/03/07 12:22:17;;;;;;;15.32;7.60;;;4.80;99.90;;;;;;5057516;28;20035;-46
2021/03/07 12:24:43;;;;;;;17.73;9.63;;;4.80;99.90;;;;;;5053197;28;20020;-45
2021/03/07 12:27:10;;;;;;;12.40;7.57;;;4.70;99.90;;;;;;5055685;28;20053;-46
2021/03/07 12:29:36;;;;;;;17.08;8.35;;;4.80;99.90;;;;;;5056728;28;20340;-47
2021/03/07 12:32:03;;;;;;;13.52;8.07;;;4.70;99.90;;;;;;5056703;28;20147;-45
2021/03/07 12:34:29;;;;;;;12.70;6.93;;;4.70;99.90;;;;;;5054743;28;20036;-46
2021/03/07 12:36:55;;;;;;;15.85;7.65;;;4.80;99.90;;;;;;5051901;28;20036;-46
2021/03/07 12:39:21;;;;;;;16.15;7.43;;;4.80;99.90;;;;;;5056757;28;20029;-45
2021/03/07 12:41:47;;;;;;;13.25;7.88;;;4.80;99.70;;;;;;5054660;28;20037;-45
2021/03/07 12:44:12;;;;;;;11.55;7.38;;;4.80;99.40;;;;;;5052711;28;20034;-45
2021/03/07 12:46:38;;;;;;;11.07;7.95;;;4.80;99.20;;;;;;5054483;28;20027;-46
2021/03/07 12:49:05;;;;;;;12.23;7.95;;;4.70;98.70;;;;;;5058283;28;20028;-47
2021/03/07 12:51:32;;;;;;;11.13;7.22;;;5.00;98.70;;;;;;5056627;28;20017;-49
2021/03/07 12:53:58;;;;;;;16.48;7.43;;;6.10;99.60;;;;;;5056292;28;20020;-45
2021/03/07 12:56:23;;;;;;;10.57;7.45;;;7.00;93.20;;;;;;5056042;28;20028;-46
2021/03/07 12:58:50;;;;;;;11.05;6.90;;;7.90;91.70;;;;;;5059540;28;20017;-45
2021/03/07 13:01:16;;;;;;;12.48;6.93;;;8.60;84.00;;;;;;5060559;28;20025;-50
2021/03/07 13:03:41;;;;;;;12.95;7.15;;;9.40;76.90;;;;;;5056752;28;20453;-46